Time;durP1;ratioP1;P1;durP2;ratioP2;P2;SDS_P1;SDS_P2;PMS_P1;PMS_P2;Temp;Humidity;BMP_temperature;BMP_pressure;BME280_temperature;BME280_humidity;BME280_pressure;Samples;Min_cycle;Max_cycle;Signal;HPM_P1;HPM_P2
2021/01/21 00:02:09;;;;;;;67.55;29.80;;;;;;;-0.21;89.11;97723.81;4965547;28;20027;-62
2021/01/21 00:04:34;;;;;;;66.05;30.40;;;;;;;-0.18;89.27;97733.28;4964862;28;20533;-61
2021/01/21 00:07:00;;;;;;;56.45;25.85;;;;;;;-0.14;89.18;97734.34;4964171;28;20042;-61
2021/01/21 00:09:25;;;;;;;50.58;19.30;;;;;;;-0.16;88.52;97739.28;4964675;28;20128;-61
2021/01/21 00:11:51;;;;;;;47.10;20.48;;;;;;;-0.23;89.41;97734.16;4964222;28;20034;-61
2021/01/21 00:14:16;;;;;;;46.42;21.00;;;;;;;-0.33;89.63;97720.59;4964275;28;20042;-61
2021/01/21 00:16:42;;;;;;;66.13;29.17;;;;;;;-0.27;89.49;97737.72;4965585;28;20042;-62
2021/01/21 00:19:07;;;;;;;136.73;53.53;;;;;;;-0.36;89.83;97736.69;4964649;28;20042;-61
2021/01/21 00:21:33;;;;;;;133.57;52.63;;;;;;;-0.54;89.53;97702.00;4965590;28;20035;-61
2021/01/21 00:23:58;;;;;;;113.72;47.85;;;;;;;-0.35;89.80;97732.88;4966097;28;20117;-61
2021/01/21 00:26:26;;;;;;;83.72;34.53;;;;;;;-0.38;89.53;97738.91;4965715;28;20031;-61
2021/01/21 00:28:52;;;;;;;63.67;26.00;;;;;;;-0.39;90.27;97729.91;4964383;28;20041;-63
2021/01/21 00:31:17;;;;;;;67.53;28.45;;;;;;;-0.39;89.50;97726.38;4963874;28;20031;-61
2021/01/21 00:33:43;;;;;;;72.88;32.90;;;;;;;-0.40;89.90;97724.75;4964631;28;20407;-61
2021/01/21 00:36:08;;;;;;;64.60;27.27;;;;;;;-0.67;89.98;97711.63;4964036;28;20038;-63
2021/01/21 00:38:34;;;;;;;50.45;20.50;;;;;;;-0.42;90.25;97732.38;4964482;28;20043;-61
2021/01/21 00:40:59;;;;;;;41.40;18.27;;;;;;;-0.44;90.45;97740.00;4965636;28;20031;-61
2021/01/21 00:43:25;;;;;;;59.72;26.33;;;;;;;-1.38;89.74;97592.72;4965816;28;20035;-62
2021/01/21 00:45:51;;;;;;;41.60;18.67;;;;;;;-0.73;90.10;97684.75;4965399;28;20030;-62
2021/01/21 00:48:17;;;;;;;29.83;13.95;;;;;;;-0.67;89.90;97700.75;4965674;28;20042;-61
2021/01/21 00:50:43;;;;;;;40.47;18.23;;;;;;;-0.36;89.50;97747.56;4965466;28;20070;-62
2021/01/21 00:53:09;;;;;;;41.90;19.20;;;;;;;-0.50;88.42;97703.06;4965567;28;20047;-62
2021/01/21 00:55:34;;;;;;;44.80;20.00;;;;;;;-0.94;88.60;97661.47;4963747;28;20110;-62
2021/01/21 00:57:59;;;;;;;57.63;23.50;;;;;;;-1.31;88.59;97604.13;4965651;28;20038;-62
2021/01/21 01:00:25;;;;;;;60.22;24.00;;;;;;;-0.48;89.54;97742.50;4967849;28;20027;-62
2021/01/21 01:02:50;;;;;;;51.50;21.88;;;;;;;-0.61;90.15;97739.59;4969474;28;20033;-61
2021/01/21 01:05:16;;;;;;;53.80;25.92;;;;;;;-0.61;90.77;97734.16;4968883;28;20027;-61
2021/01/21 01:07:41;;;;;;;53.10;24.58;;;;;;;-0.68;90.31;97739.09;4969108;28;20524;-62
2021/01/21 01:10:07;;;;;;;66.85;33.72;;;;;;;-0.66;91.17;97731.47;4969059;28;20528;-62
2021/01/21 01:12:33;;;;;;;47.25;21.55;;;;;;;-0.61;90.76;97761.34;4969156;28;20030;-61
2021/01/21 01:14:58;;;;;;;24.90;12.23;;;;;;;-0.65;89.84;97716.78;4967811;28;20039;-61
2021/01/21 01:17:24;;;;;;;27.08;11.82;;;;;;;-0.58;90.39;97733.59;4983789;28;20038;-62
2021/01/21 01:19:49;;;;;;;27.95;12.52;;;;;;;-1.56;90.21;97603.16;4969505;28;20031;-64
2021/01/21 01:22:15;;;;;;;25.50;11.38;;;;;;;-0.66;90.06;97736.91;4968814;28;20089;-62
2021/01/21 01:24:41;;;;;;;26.60;13.00;;;;;;;-0.81;91.03;97770.47;4967611;28;20493;-62
2021/01/21 01:27:07;;;;;;;28.77;12.93;;;;;;;-1.79;89.87;97571.22;4967024;28;20026;-62
2021/01/21 01:29:33;;;;;;;32.25;12.38;;;;;;;-0.81;90.34;97728.84;4969051;28;20038;-62
2021/01/21 01:31:58;;;;;;;39.55;16.63;;;;;;;-1.41;90.26;97653.06;4968592;28;20034;-62
2021/01/21 01:34:24;;;;;;;40.25;16.17;;;;;;;-1.61;90.71;97622.19;4968929;28;20043;-63
2021/01/21 01:36:49;;;;;;;48.10;19.00;;;;;;;-0.94;90.94;97726.72;4968311;28;20030;-62
2021/01/21 01:39:15;;;;;;;47.75;19.35;;;;;;;-1.38;90.58;97652.50;4969336;28;20408;-62
2021/01/21 01:41:40;;;;;;;44.85;17.35;;;;;;;-1.09;91.35;97691.50;4968272;28;20057;-62
2021/01/21 01:44:05;;;;;;;42.65;17.42;;;;;;;-1.89;90.77;97576.69;4967185;28;20635;-62
2021/01/21 01:46:32;;;;;;;38.50;17.58;;;;;;;-0.92;91.55;97705.53;4966626;28;20051;-62
2021/01/21 01:48:59;;;;;;;34.63;15.85;;;;;;;-0.99;91.59;97726.75;4967174;28;20041;-62
2021/01/21 01:51:24;;;;;;;38.45;16.60;;;;;;;-1.01;92.16;97696.34;4967941;28;20498;-62
2021/01/21 01:53:50;;;;;;;41.03;17.92;;;;;;;-0.88;92.10;97692.97;4968276;28;20042;-62
2021/01/21 01:56:15;;;;;;;35.10;15.18;;;;;;;-0.90;92.17;97697.91;4968301;28;20038;-62
2021/01/21 01:58:41;;;;;;;31.77;11.68;;;;;;;-0.90;92.91;97692.47;4968594;28;20039;-62
2021/01/21 02:01:06;;;;;;;26.50;8.80;;;;;;;-1.03;92.21;97666.72;4968118;28;20089;-62
2021/01/21 02:03:32;;;;;;;39.60;11.85;;;;;;;-0.94;92.23;97653.31;4966904;28;20053;-62
2021/01/21 02:05:57;;;;;;;25.98;10.38;;;;;;;-0.86;92.72;97688.09;4966480;28;20030;-62
2021/01/21 02:08:24;;;;;;;24.80;12.38;;;;;;;-1.11;91.23;97620.28;4968242;28;20034;-61
2021/01/21 02:10:55;;;;;;;25.85;10.43;;;;;;;-0.78;91.69;97684.75;4966710;28;20403;-60
2021/01/21 02:13:24;;;;;;;30.38;13.10;;;;;;;-3.87;91.11;97195.88;4966768;28;20042;-62
2021/01/21 02:16:18;;;;;;;33.95;15.18;;;;;;;-0.86;91.16;97685.38;4966162;28;20088;-61
2021/01/21 02:19:02;;;;;;;39.88;17.83;;;;;;;-1.01;91.51;97688.19;4968250;28;20122;-61
2021/01/21 02:22:05;;;;;;;41.13;18.90;;;;;;;-1.08;91.75;97684.94;4965886;28;20105;-62
2021/01/21 02:24:34;;;;;;;65.18;27.52;;;;;;;-1.09;92.27;97688.78;4968166;28;20050;-62
2021/01/21 02:27:04;;;;;;;55.80;24.23;;;;;;;-1.32;91.85;97657.63;4967601;28;20039;-63
2021/01/21 02:29:31;;;;;;;53.13;24.00;;;;;;;-1.11;92.18;97680.06;4968057;28;20046;-61
2021/01/21 02:32:09;;;;;;;73.60;31.52;;;;;;;-1.15;92.23;97679.00;4967664;28;20042;-62
2021/01/21 02:35:09;;;;;;;158.57;65.20;;;;;;;-1.14;92.15;97688.78;4967684;28;20053;-61
2021/01/21 02:37:38;;;;;;;122.10;52.47;;;;;;;-1.62;92.27;97608.88;4966405;28;20038;-62
2021/01/21 02:40:05;;;;;;;48.13;18.77;;;;;;;-4.34;91.43;97152.97;4967798;28;20043;-61
2021/01/21 02:42:44;;;;;;;50.97;20.80;;;;;;;-1.16;92.16;97674.66;4967585;28;20510;-62
2021/01/21 02:45:11;;;;;;;33.33;16.10;;;;;;;-1.21;92.57;97677.41;4967202;28;20049;-61
2021/01/21 02:47:37;;;;;;;48.60;26.25;;;;;;;-1.67;92.61;97607.00;4968005;28;20096;-61
2021/01/21 02:50:03;;;;;;;31.85;13.93;;;;;;;-1.64;92.90;97617.31;4967420;28;20074;-62
2021/01/21 02:52:46;;;;;;;21.98;10.48;;;;;;;-1.33;93.41;97682.38;4965951;28;20035;-63
2021/01/21 02:55:24;;;;;;;28.85;12.00;;;;;;;-1.39;93.28;97683.47;4967479;28;20038;-61
2021/01/21 02:58:11;;;;;;;31.45;13.77;;;;;;;-1.98;93.67;97621.81;4967570;28;20049;-62
2021/01/21 03:00:38;;;;;;;35.45;15.93;;;;;;;-1.36;93.76;97688.34;4965700;28;20108;-61
2021/01/21 03:03:11;;;;;;;40.20;17.27;;;;;;;-1.37;93.25;97686.72;4967223;28;20030;-61
2021/01/21 03:05:37;;;;;;;37.30;15.40;;;;;;;-1.25;92.25;97679.88;4966641;28;20101;-63
2021/01/21 03:08:03;;;;;;;31.13;12.27;;;;;;;-1.25;92.61;97681.78;4966954;28;20030;-62
2021/01/21 03:10:29;;;;;;;36.22;15.00;;;;;;;-1.71;92.75;97638.50;4966972;28;20047;-61
2021/01/21 03:12:56;;;;;;;27.83;12.48;;;;;;;-4.26;93.40;97206.47;4966353;28;20508;-62
2021/01/21 03:15:22;;;;;;;29.00;12.15;;;;;;;-1.27;94.39;97695.66;4966276;28;20093;-63
2021/01/21 03:17:48;;;;;;;25.80;11.70;;;;;;;-1.24;94.08;97691.56;4967072;28;20417;-62
2021/01/21 03:20:14;;;;;;;41.13;18.05;;;;;;;-1.21;93.88;97696.44;4966606;28;20425;-62
2021/01/21 03:22:39;;;;;;;39.33;18.20;;;;;;;-2.05;93.82;97587.88;4966903;28;20046;-61
2021/01/21 03:25:05;;;;;;;44.55;19.00;;;;;;;-1.29;93.78;97669.84;4967046;28;20047;-62
2021/01/21 03:27:31;;;;;;;41.70;17.98;;;;;;;-1.11;93.80;97696.38;4966961;28;20026;-61
2021/01/21 03:29:56;;;;;;;36.00;15.38;;;;;;;-1.57;93.24;97688.44;4967302;28;20069;-62
2021/01/21 03:32:21;;;;;;;40.45;16.88;;;;;;;-1.16;93.70;97704.56;4965056;28;20395;-63
2021/01/21 03:34:47;;;;;;;30.42;14.20;;;;;;;-1.35;93.67;97673.66;4967315;28;20121;-61
2021/01/21 03:37:13;;;;;;;36.38;14.50;;;;;;;-1.17;93.73;97719.25;4966904;28;20026;-62
2021/01/21 03:39:39;;;;;;;38.38;17.33;;;;;;;-1.58;92.66;97632.47;4981542;28;20129;-60
2021/01/21 03:42:04;;;;;;;50.90;25.48;;;;;;;-1.71;91.84;97616.78;4966566;28;20042;-61
2021/01/21 03:44:30;;;;;;;51.33;25.63;;;;;;;-1.93;91.96;97600.03;4966657;28;20493;-61
2021/01/21 03:46:55;;;;;;;70.75;31.45;;;;;;;-1.21;92.53;97707.28;4966336;28;20034;-62
2021/01/21 03:49:20;;;;;;;89.05;39.50;;;;;;;-1.26;92.03;97704.59;4966751;28;20045;-62
2021/01/21 03:51:46;;;;;;;63.88;30.50;;;;;;;-1.23;91.95;97709.50;4966293;28;20026;-62
2021/01/21 03:54:12;;;;;;;62.67;32.15;;;;;;;-1.56;91.67;97659.38;4966682;28;20038;-62
2021/01/21 03:56:37;;;;;;;65.38;30.88;;;;;;;-1.26;91.83;97710.03;4965909;28;20066;-62
2021/01/21 03:59:03;;;;;;;55.08;24.08;;;;;;;-1.24;91.55;97707.84;4966661;28;20506;-63
2021/01/21 04:01:29;;;;;;;43.90;19.48;;;;;;;-1.40;91.23;97714.44;4965850;28;20113;-62
2021/01/21 04:03:54;;;;;;;36.88;18.73;;;;;;;-1.42;91.54;97719.34;4964972;28;20130;-61
2021/01/21 04:06:19;;;;;;;34.28;17.63;;;;;;;-2.24;91.31;97609.38;4964400;28;20568;-60
2021/01/21 04:08:45;;;;;;;41.45;19.15;;;;;;;-1.50;91.55;97725.38;4966419;28;20125;-63
2021/01/21 04:11:10;;;;;;;39.60;18.55;;;;;;;-2.19;91.12;97614.78;4965771;28;20065;-62
2021/01/21 04:13:36;;;;;;;42.30;19.45;;;;;;;-1.83;91.36;97677.91;4964184;28;20035;-61
2021/01/21 04:16:01;;;;;;;54.63;21.70;;;;;;;-1.88;91.56;97670.59;4963933;28;20031;-61
2021/01/21 04:18:27;;;;;;;47.88;21.35;;;;;;;-1.52;90.99;97732.97;4966159;28;20039;-61
2021/01/21 04:20:52;;;;;;;52.10;22.33;;;;;;;-2.21;91.00;97619.66;4965485;28;20035;-62
2021/01/21 04:23:17;;;;;;;88.47;33.15;;;;;;;-1.53;90.46;97725.91;4964806;28;20101;-64
2021/01/21 04:25:43;;;;;;;90.10;33.80;;;;;;;-2.20;90.43;97640.31;4964402;28;20096;-62
2021/01/21 04:28:08;;;;;;;74.55;30.27;;;;;;;-1.56;90.77;97733.53;4966209;28;20122;-61
2021/01/21 04:30:34;;;;;;;82.15;31.75;;;;;;;-1.66;90.16;97711.81;4964016;28;20039;-61
2021/01/21 04:32:59;;;;;;;74.32;32.72;;;;;;;-2.05;89.89;97659.25;4966024;28;20269;-62
2021/01/21 04:35:24;;;;;;;82.72;35.33;;;;;;;-1.55;90.67;97748.72;4965083;28;20149;-61
2021/01/21 04:37:50;;;;;;;92.70;41.10;;;;;;;-1.67;90.40;97740.06;4965720;28;20063;-61
2021/01/21 04:40:16;;;;;;;106.20;44.90;;;;;;;-1.66;90.08;97741.69;4965541;28;20029;-61
2021/01/21 04:42:42;;;;;;;97.90;45.65;;;;;;;-2.30;91.06;97653.06;4964693;28;20540;-61
2021/01/21 04:45:08;;;;;;;121.38;48.85;;;;;;;-2.15;90.63;97672.03;4965267;28;20191;-61
2021/01/21 04:47:35;;;;;;;157.77;60.92;;;;;;;-1.69;90.45;97750.38;4965692;28;20077;-63
2021/01/21 04:50:02;;;;;;;85.43;38.03;;;;;;;-1.66;90.73;97749.84;4964156;28;20031;-61
2021/01/21 04:52:28;;;;;;;89.25;38.38;;;;;;;-1.63;90.94;97748.47;4965507;28;20557;-61
2021/01/21 04:55:14;;;;;;;97.10;40.42;;;;;;;-1.67;90.56;97758.25;4966049;28;20531;-61
2021/01/21 04:57:48;;;;;;;98.88;41.90;;;;;;;-1.69;90.58;97755.81;4964381;28;20038;-63
2021/01/21 05:00:15;;;;;;;110.05;43.08;;;;;;;-2.06;90.92;97722.78;4965249;28;20046;-62
2021/01/21 05:02:42;;;;;;;99.47;43.08;;;;;;;-1.69;91.38;97772.09;4965588;28;20062;-62
2021/01/21 05:05:09;;;;;;;114.55;46.03;;;;;;;-1.87;90.79;97742.84;4963727;28;20035;-61
2021/01/21 05:07:36;;;;;;;113.15;44.13;;;;;;;-1.86;90.92;97768.88;4965674;28;20058;-63
2021/01/21 05:10:02;;;;;;;146.38;58.05;;;;;;;-1.81;90.64;97774.31;4965144;28;20058;-61
2021/01/21 05:12:28;;;;;;;139.35;56.13;;;;;;;-1.82;90.56;97767.22;4965414;28;20555;-63
2021/01/21 05:14:53;;;;;;;117.70;52.13;;;;;;;-2.33;90.29;97678.03;4980134;28;20079;-61
2021/01/21 05:17:19;;;;;;;125.32;52.63;;;;;;;-2.48;90.88;97659.84;4965591;28;20034;-61
2021/01/21 05:19:52;;;;;;;151.10;59.92;;;;;;;-2.11;91.47;97774.34;4964462;28;20414;-62
2021/01/21 05:22:17;;;;;;;131.45;53.92;;;;;;;-2.73;93.97;97729.50;4964171;28;20605;-61
2021/01/21 05:24:44;;;;;;;109.13;47.20;;;;;;;-2.01;93.21;97787.88;4965783;28;20118;-61
2021/01/21 05:27:10;;;;;;;88.85;37.97;;;;;;;-1.95;92.58;97789.53;4965271;28;20043;-62
2021/01/21 05:29:36;;;;;;;71.68;31.00;;;;;;;-2.55;92.63;97701.88;4980175;28;20034;-61
2021/01/21 05:32:05;;;;;;;47.25;20.73;;;;;;;-2.00;92.47;97759.66;4963039;28;20038;-61
2021/01/21 05:34:33;;;;;;;55.30;24.73;;;;;;;-1.88;92.54;97784.63;4963921;28;20049;-62
2021/01/21 05:36:58;;;;;;;73.40;30.67;;;;;;;-1.79;91.82;97787.59;4963415;28;20085;-61
2021/01/21 05:39:24;;;;;;;55.05;22.92;;;;;;;-2.19;92.06;97728.75;4963970;28;20437;-61
2021/01/21 05:41:52;;;;;;;50.58;22.70;;;;;;;-2.15;91.90;97746.09;4964799;28;20042;-61
2021/01/21 05:44:17;;;;;;;38.08;18.02;;;;;;;-2.22;91.64;97732.00;4965626;28;20046;-62
2021/01/21 05:46:43;;;;;;;34.08;15.82;;;;;;;-1.80;91.84;97792.22;4966277;28;20035;-62
2021/01/21 05:49:11;;;;;;;36.92;19.08;;;;;;;-1.91;91.81;97762.63;4983219;28;20039;-62
2021/01/21 05:51:37;;;;;;;56.72;21.42;;;;;;;-1.72;91.31;97815.28;4968461;28;20081;-62
2021/01/21 05:54:02;;;;;;;79.45;33.47;;;;;;;-1.79;90.61;97799.25;4968556;28;20118;-62
2021/01/21 05:56:28;;;;;;;113.20;42.38;;;;;;;-1.80;91.40;97792.22;4966703;28;20027;-61
2021/01/21 05:58:54;;;;;;;141.13;55.83;;;;;;;-1.78;91.64;97784.63;4968689;28;20041;-61
2021/01/21 06:01:21;;;;;;;168.63;63.28;;;;;;;-2.99;90.74;97597.78;4961732;28;20310;-61
2021/01/21 06:03:47;;;;;;;175.52;64.18;;;;;;;-1.59;90.03;97788.41;4968375;28;20030;-60
2021/01/21 06:06:12;;;;;;;162.55;63.78;;;;;;;-1.66;89.25;97787.84;4968125;28;20521;-68
2021/01/21 06:08:39;;;;;;;169.68;68.47;;;;;;;-1.64;89.06;97788.41;4955355;28;20512;-66
2021/01/21 06:11:08;;;;;;;205.68;88.30;;;;;;;-2.35;88.75;97694.56;4948266;28;20506;-62
2021/01/21 06:13:40;;;;;;;181.00;74.22;;;;;;;-1.50;88.99;97802.22;4963664;28;20050;-62
2021/01/21 06:16:07;;;;;;;136.93;59.80;;;;;;;-1.46;88.58;97788.91;4948441;28;20052;-62
2021/01/21 06:18:33;;;;;;;132.60;58.72;;;;;;;-1.44;88.02;97789.44;4960405;28;20038;-62
2021/01/21 06:21:00;;;;;;;188.02;84.60;;;;;;;-1.84;87.96;97731.41;4959358;28;20518;-61
2021/01/21 06:23:27;;;;;;;232.65;83.88;;;;;;;-2.21;87.84;97741.75;4948898;28;20047;-63
2021/01/21 06:25:54;;;;;;;182.55;75.32;;;;;;;-2.91;87.57;97584.53;4956590;28;20035;-62
2021/01/21 06:28:21;;;;;;;178.20;78.57;;;;;;;-1.25;88.33;97814.94;4943439;28;20042;-63
2021/01/21 06:30:56;;;;;;;171.32;74.10;;;;;;;-1.42;87.82;97754.69;4935821;28;20038;-63
2021/01/21 06:33:39;;;;;;;186.27;79.18;;;;;;;-1.76;87.25;97668.41;4937255;28;20043;-63
2021/01/21 06:36:07;;;;;;;195.70;79.88;;;;;;;-1.83;86.38;97678.75;4930739;28;20301;-60
2021/01/21 06:38:42;;;;;;;209.93;86.15;;;;;;;-0.75;86.69;97795.69;4936294;28;20047;-62
2021/01/21 06:41:15;;;;;;;321.90;116.97;;;;;;;-0.58;86.01;97794.25;4936244;28;20311;-62
2021/01/21 06:43:41;;;;;;;196.90;90.53;;;;;;;-0.45;85.12;97795.53;4934735;28;20146;-60
2021/01/21 06:46:13;;;;;;;205.02;84.50;;;;;;;-0.64;84.63;97778.25;4915605;28;20158;-62
2021/01/21 06:48:41;;;;;;;192.90;77.55;;;;;;;-1.83;84.94;97562.00;4918049;28;20121;-63
2021/01/21 06:51:10;;;;;;;178.38;72.88;;;;;;;-2.63;83.73;97407.75;4930727;28;20113;-62
2021/01/21 06:53:44;;;;;;;175.90;74.63;;;;;;;-0.21;84.46;97799.19;4928162;28;20030;-61
2021/01/21 06:56:10;;;;;;;181.82;73.72;;;;;;;0.04;84.53;97785.38;4935189;28;20035;-62
2021/01/21 06:58:50;;;;;;;243.57;100.65;;;;;;;0.09;83.96;97777.19;4928822;28;20423;-59
2021/01/21 07:01:31;;;;;;;147.85;64.13;;;;;;;0.40;82.34;97789.41;4926502;28;20580;-64
2021/01/21 07:04:21;;;;;;;118.93;52.60;;;;;;;-0.57;81.63;97596.50;4936752;28;20126;-63
2021/01/21 07:06:49;;;;;;;125.60;57.63;;;;;;;0.71;81.81;97790.72;4935218;28;20047;-60
2021/01/21 07:09:17;;;;;;;140.15;62.13;;;;;;;0.49;81.42;97716.81;4936145;28;20055;-64
2021/01/21 07:11:44;;;;;;;150.18;64.72;;;;;;;0.63;80.72;97723.22;4923441;28;20421;-64
2021/01/21 07:14:10;;;;;;;141.50;64.88;;;;;;;1.18;79.89;97779.81;4930292;28;20039;-67
2021/01/21 07:16:37;;;;;;;137.02;61.65;;;;;;;0.65;80.08;97703.88;4925862;28;20058;-62
2021/01/21 07:19:03;;;;;;;167.85;78.13;;;;;;;0.39;79.14;97593.53;4921994;28;20177;-65
2021/01/21 07:21:35;;;;;;;139.45;66.63;;;;;;;1.68;78.67;97780.22;4915992;28;20197;-63
2021/01/21 07:24:03;;;;;;;166.65;73.53;;;;;;;1.44;77.56;97739.34;4929218;28;20042;-62
2021/01/21 07:26:41;;;;;;;251.23;108.65;;;;;;;1.87;76.16;97775.56;4934126;28;20420;-62
2021/01/21 07:29:15;;;;;;;231.98;96.95;;;;;;;1.93;76.56;97786.13;4924853;28;20054;-64
2021/01/21 07:31:56;;;;;;;235.55;99.28;;;;;;;2.00;77.37;97774.81;4947151;28;20158;-63
2021/01/21 07:34:40;;;;;;;219.57;95.63;;;;;;;2.09;77.15;97770.28;4945958;28;20043;-63
2021/01/21 07:37:22;;;;;;;224.63;92.57;;;;;;;1.18;76.47;97621.59;4951121;28;20034;-62
2021/01/21 07:40:07;;;;;;;186.23;79.53;;;;;;;2.01;76.76;97777.25;4947691;28;20418;-61
2021/01/21 07:42:32;;;;;;;51.80;24.85;;;;;;;1.86;78.07;97780.22;4947402;28;20064;-63
2021/01/21 07:45:13;;;;;;;48.83;23.17;;;;;;;1.98;77.55;97782.50;4947580;28;20043;-63
2021/01/21 07:47:41;;;;;;;40.63;19.48;;;;;;;2.16;77.77;97784.41;4947026;28;20027;-61
2021/01/21 07:50:19;;;;;;;62.10;25.38;;;;;;;2.39;77.51;97783.44;4947362;28;20039;-64
2021/01/21 07:52:49;;;;;;;65.65;25.77;;;;;;;0.61;76.99;97534.63;4947045;29;20032;-63
2021/01/21 07:55:39;;;;;;;67.45;31.13;;;;;;;2.83;77.38;97775.53;4974958;28;20045;-61
2021/01/21 07:58:27;;;;;;;108.28;54.03;;;;;;;2.85;75.99;97778.78;4947109;28;20078;-63
2021/01/21 08:01:13;;;;;;;105.05;49.35;;;;;;;2.93;75.81;97783.53;4946775;28;20122;-64
2021/01/21 08:03:41;;;;;;;88.75;45.03;;;;;;;2.15;76.12;97662.56;4947458;28;20050;-59
2021/01/21 08:06:07;;;;;;;91.10;43.78;;;;;;;3.21;75.66;97774.22;4966290;28;20034;-62
2021/01/21 08:08:33;;;;;;;78.35;36.92;;;;;;;3.30;75.16;97777.88;4965768;28;20043;-62
2021/01/21 08:11:09;;;;;;;95.82;43.92;;;;;;;2.50;75.43;97747.44;4961876;28;20082;-71
2021/01/21 08:13:35;;;;;;;81.03;40.08;;;;;;;2.22;75.57;97654.75;4963621;28;20121;-64
2021/01/21 08:16:02;;;;;;;35.13;18.15;;;;;;;2.08;77.33;97733.16;4963113;28;20042;-63
2021/01/21 08:18:27;;;;;;;36.53;20.45;;;;;;;2.37;78.06;97741.94;4966078;28;20047;-63
2021/01/21 08:20:53;;;;;;;40.38;20.35;;;;;;;3.05;76.40;97803.81;4964363;28;20022;-61
2021/01/21 08:23:18;;;;;;;28.70;15.45;;;;;;;2.68;75.73;97704.72;4961904;28;20047;-60
2021/01/21 08:25:46;;;;;;;33.53;15.90;;;;;;;3.38;74.10;97829.19;4961276;28;20035;-61
2021/01/21 08:28:19;;;;;;;30.48;15.68;;;;;;;3.03;74.01;97652.00;4946475;28;20134;-62
2021/01/21 08:30:46;;;;;;;31.58;15.65;;;;;;;4.17;72.27;97787.38;4959119;28;20034;-63
2021/01/21 08:33:26;;;;;;;38.13;17.02;;;;;;;4.26;71.00;97785.53;4965018;28;20138;-62
2021/01/21 08:36:03;;;;;;;23.95;12.02;;;;;;;4.60;70.87;97780.25;4965094;28;20023;-64
2021/01/21 08:38:40;;;;;;;28.77;15.32;;;;;;;4.47;69.03;97786.63;4965481;28;20043;-60
2021/01/21 08:41:06;;;;;;;24.27;12.70;;;;;;;3.67;69.75;97634.34;4965306;28;20038;-62
2021/01/21 08:43:36;;;;;;;26.38;15.07;;;;;;;3.73;69.38;97639.38;4977804;28;20035;-62
2021/01/21 08:46:20;;;;;;;21.75;12.20;;;;;;;2.20;68.69;97381.78;4959651;28;20047;-67
2021/01/21 08:48:49;;;;;;;22.83;12.38;;;;;;;4.41;68.11;97702.06;4965967;28;20399;-64
2021/01/21 08:51:37;;;;;;;21.23;12.25;;;;;;;5.09;66.83;97776.47;4962820;28;20046;-61
2021/01/21 08:54:19;;;;;;;18.58;12.50;;;;;;;5.11;67.82;97745.94;4955219;28;20550;-60
2021/01/21 08:57:05;;;;;;;36.03;20.27;;;;;;;5.56;67.59;97761.09;4953661;28;20114;-63
2021/01/21 08:59:30;;;;;;;32.85;18.88;;;;;;;5.69;66.23;97762.91;4952860;28;20095;-61
2021/01/21 09:01:56;;;;;;;43.05;24.67;;;;;;;5.96;65.65;97759.88;4964049;28;20035;-65
2021/01/21 09:04:30;;;;;;;42.60;24.27;;;;;;;5.96;65.22;97757.13;4993567;28;20047;-65
2021/01/21 09:06:57;;;;;;;45.08;25.02;;;;;;;6.26;64.83;97750.63;4950226;28;20043;-60
2021/01/21 09:09:25;;;;;;;40.88;22.98;;;;;;;6.52;64.50;97745.91;4947136;28;20078;-63
2021/01/21 09:11:50;;;;;;;38.92;22.73;;;;;;;6.76;62.18;97754.44;4961449;28;20122;-63
2021/01/21 09:14:16;;;;;;;41.55;23.98;;;;;;;6.38;61.99;97714.22;4956824;28;20045;-63
2021/01/21 09:16:45;;;;;;;35.58;21.40;;;;;;;6.92;61.50;97730.75;4956220;28;20049;-61
2021/01/21 09:19:15;;;;;;;34.22;20.60;;;;;;;7.16;58.63;97750.22;4946342;28;20043;-63
2021/01/21 09:22:01;;;;;;;55.00;29.58;;;;;;;7.04;59.28;97744.63;4967713;28;20153;-70
2021/01/21 09:24:27;;;;;;;41.25;23.85;;;;;;;7.14;58.31;97755.28;4963526;28;20047;-62
2021/01/21 09:27:11;;;;;;;33.50;20.65;;;;;;;7.10;59.20;97745.22;4968703;28;20031;-63
2021/01/21 09:29:50;;;;;;;30.85;19.08;;;;;;;7.28;59.88;97744.84;4999996;28;20039;-62
2021/01/21 09:32:17;;;;;;;38.97;22.88;;;;;;;7.54;56.72;97742.72;5000265;28;20134;-60
2021/01/21 09:34:52;;;;;;;39.00;21.65;;;;;;;7.25;58.46;97740.00;4967312;28;20566;-63
2021/01/21 09:37:18;;;;;;;44.20;23.90;;;;;;;7.53;59.39;97732.88;4968391;28;20041;-62
2021/01/21 09:39:43;;;;;;;35.60;24.85;;;;;;;7.63;59.26;97724.19;4966751;28;20035;-61
2021/01/21 09:42:08;;;;;;;30.05;17.67;;;;;;;7.41;59.16;97665.81;4958656;28;20035;-62
2021/01/21 09:44:34;;;;;;;24.15;15.13;;;;;;;7.87;58.26;97728.25;4949484;28;20264;-61
2021/01/21 09:46:59;;;;;;;26.33;16.42;;;;;;;7.91;58.58;97704.34;4947178;29;20053;-62
2021/01/21 09:49:25;;;;;;;31.40;20.02;;;;;;;8.19;56.49;97716.47;4965733;28;20125;-60
2021/01/21 09:51:50;;;;;;;30.50;18.52;;;;;;;8.31;57.67;97711.03;4999426;28;20050;-61
2021/01/21 09:54:15;;;;;;;30.40;17.63;;;;;;;8.45;56.26;97717.88;4963303;28;20090;-62
2021/01/21 09:56:41;;;;;;;25.98;14.45;;;;;;;7.89;55.38;97626.69;4957531;28;20498;-62
2021/01/21 09:59:06;;;;;;;23.75;13.23;;;;;;;8.55;56.16;97705.59;4952124;28;20119;-63
2021/01/21 10:01:32;;;;;;;27.52;16.27;;;;;;;8.74;55.65;97711.38;4982458;28;20049;-61
2021/01/21 10:03:57;;;;;;;25.52;16.33;;;;;;;8.64;54.32;97695.25;4949283;28;20132;-61
2021/01/21 10:06:23;;;;;;;20.08;10.27;;;;;;;8.34;52.71;97704.81;4962220;28;20031;-61
2021/01/21 10:08:48;;;;;;;14.98;9.82;;;;;;;8.42;54.16;97696.47;4952510;28;20102;-62
2021/01/21 10:11:13;;;;;;;25.08;15.43;;;;;;;8.61;54.32;97688.47;4950261;28;20118;-61
2021/01/21 10:13:39;;;;;;;23.25;13.90;;;;;;;8.81;53.22;97689.50;4949071;28;20039;-62
2021/01/21 10:16:04;;;;;;;25.23;15.30;;;;;;;8.41;53.63;97638.84;4960330;28;20035;-62
2021/01/21 10:18:30;;;;;;;28.45;15.82;;;;;;;8.40;53.19;97548.88;4949053;29;20070;-65
2021/01/21 10:20:55;;;;;;;22.85;14.02;;;;;;;8.91;53.03;97625.53;4948561;28;20039;-61
2021/01/21 10:23:20;;;;;;;19.17;11.32;;;;;;;8.32;53.94;97673.97;4949069;28;20027;-62
2021/01/21 10:25:46;;;;;;;15.65;9.32;;;;;;;7.12;55.51;97583.19;4964104;28;20520;-62
2021/01/21 10:28:11;;;;;;;16.77;9.32;;;;;;;7.34;56.34;97644.31;4961164;28;20410;-63
2021/01/21 10:30:37;;;;;;;18.75;9.75;;;;;;;6.62;57.45;97528.13;4965333;28;20097;-61
2021/01/21 10:33:02;;;;;;;15.90;8.93;;;;;;;8.05;55.92;97660.75;4954920;28;20567;-59
2021/01/21 10:35:27;;;;;;;15.90;9.23;;;;;;;8.49;55.40;97646.19;4967755;28;20030;-63
2021/01/21 10:37:53;;;;;;;16.95;10.15;;;;;;;8.77;54.72;97625.06;4997278;28;20026;-62
2021/01/21 10:40:18;;;;;;;15.65;9.27;;;;;;;9.05;52.44;97631.53;4964504;28;20119;-64
2021/01/21 10:42:44;;;;;;;19.75;8.98;;;;;;;9.36;51.29;97626.19;4997761;28;20676;-62
2021/01/21 10:45:09;;;;;;;13.73;8.30;;;;;;;9.33;51.04;97626.88;4987862;28;20050;-60
2021/01/21 10:47:35;;;;;;;14.77;8.68;;;;;;;9.81;51.04;97614.88;4967745;28;20034;-59
2021/01/21 10:50:00;;;;;;;21.17;12.35;;;;;;;10.08;50.83;97606.63;4968029;28;20053;-61
2021/01/21 10:52:26;;;;;;;15.90;10.75;;;;;;;10.31;49.77;97607.66;4957261;28;20039;-62
2021/01/21 10:54:51;;;;;;;17.92;9.70;;;;;;;10.47;48.91;97597.41;4952854;28;20119;-62
2021/01/21 10:57:17;;;;;;;24.95;15.07;;;;;;;10.41;48.97;97551.75;4946285;28;20063;-62
2021/01/21 10:59:42;;;;;;;18.38;11.27;;;;;;;10.65;48.51;97593.09;4950173;28;20189;-59
2021/01/21 11:02:08;;;;;;;19.35;11.50;;;;;;;10.44;48.43;97584.28;4966451;28;20130;-60
2021/01/21 11:04:34;;;;;;;23.73;14.27;;;;;;;9.86;50.12;97596.09;4965664;28;20043;-60
2021/01/21 11:06:59;;;;;;;15.80;9.85;;;;;;;9.70;50.92;97594.41;4966522;28;20069;-59
2021/01/21 11:09:37;;;;;;;15.13;9.70;;;;;;;6.71;51.99;97151.75;4951879;28;20043;-63
2021/01/21 11:12:04;;;;;;;15.95;10.52;;;;;;;9.20;51.51;97451.16;4963774;28;20039;-60
2021/01/21 11:14:30;;;;;;;19.17;9.38;;;;;;;9.98;50.18;97575.84;4950700;28;20511;-60
2021/01/21 11:16:55;;;;;;;14.35;9.40;;;;;;;9.38;49.79;97469.06;4966747;28;20042;-61
2021/01/21 11:19:20;;;;;;;13.57;8.13;;;;;;;8.57;51.50;97457.53;4966138;28;20049;-61
2021/01/21 11:21:46;;;;;;;15.18;8.68;;;;;;;9.32;51.32;97564.47;4947518;28;20042;-59
2021/01/21 11:24:11;;;;;;;12.60;8.15;;;;;;;9.42;51.59;97563.16;4966882;28;20073;-61
2021/01/21 11:26:37;;;;;;;14.30;8.63;;;;;;;9.79;50.13;97562.69;4950303;28;20042;-60